Time;durP1;ratioP1;P1;durP2;ratioP2;P2;SDS_P1;SDS_P2;PMS_P1;PMS_P2;Temp;Humidity;BMP_temperature;BMP_pressure;BME280_temperature;BME280_humidity;BME280_pressure;Samples;Min_cycle;Max_cycle;Signal;HPM_P1;HPM_P2
2022/04/23 00:00:34;;;;;;;;;;;20.90;48.70;;;;;;5094777;28;19924;-46
2022/04/23 00:03:02;;;;;;;;;;;20.90;48.70;;;;;;5094701;28;19973;-52
2022/04/23 00:05:29;;;;;;;;;;;20.80;48.60;;;;;;5093511;28;19968;-50
2022/04/23 00:07:56;;;;;;;;;;;20.90;48.70;;;;;;5076714;28;19924;-48
2022/04/23 00:10:23;;;;;;;;;;;20.90;48.70;;;;;;5091872;28;20322;-48
2022/04/23 00:12:50;;;;;;;;;;;20.90;48.70;;;;;;5094251;28;20023;-47
2022/04/23 00:15:24;;;;;;;;;;;20.90;48.60;;;;;;5094237;28;19930;-48
2022/04/23 00:17:51;;;;;;;;;;;20.90;48.70;;;;;;5094225;28;19971;-49
2022/04/23 00:20:18;;;;;;;;;;;20.90;48.60;;;;;;5093962;28;20394;-47
2022/04/23 00:22:45;;;;;;;;;;;20.90;48.60;;;;;;5093976;28;19930;-49
2022/04/23 00:25:12;;;;;;;;;;;20.90;48.60;;;;;;5091812;28;19924;-48
2022/04/23 00:27:39;;;;;;;;;;;20.90;48.60;;;;;;5094049;28;20019;-51
2022/04/23 00:30:06;;;;;;;;;;;20.90;48.60;;;;;;5094252;28;19928;-52
2022/04/23 00:32:33;;;;;;;;;;;20.90;48.60;;;;;;5093999;28;19930;-51
2022/04/23 00:35:00;;;;;;;;;;;20.90;48.60;;;;;;5094147;28;20011;-49
2022/04/23 00:37:27;;;;;;;;;;;20.90;48.60;;;;;;5094231;28;19924;-51
2022/04/23 00:39:54;;;;;;;;;;;20.90;48.60;;;;;;5092356;28;19946;-49
2022/04/23 00:42:22;;;;;;;;;;;20.90;48.60;;;;;;5093858;28;19924;-50
2022/04/23 00:44:48;;;;;;;;;;;20.90;48.60;;;;;;5094160;28;20299;-48
2022/04/23 00:47:16;;;;;;;;;;;20.90;48.60;;;;;;5093797;28;19925;-49
2022/04/23 00:49:43;;;;;;;;;;;20.90;48.60;;;;;;5094464;28;19924;-50
2022/04/23 00:52:10;;;;;;;;;;;20.90;48.60;;;;;;5093666;28;19925;-52
2022/04/23 00:54:38;;;;;;;;;;;20.90;48.60;;;;;;5092320;28;20009;-48
2022/04/23 00:57:06;;;;;;;;;;;20.90;48.60;;;;;;5093731;28;19932;-54
2022/04/23 00:59:33;;;;;;;;;;;20.90;48.60;;;;;;5093981;28;19924;-49
2022/04/23 01:02:03;;;;;;;;;;;20.80;48.50;;;;;;5093991;28;20280;-52
2022/04/23 01:04:30;;;;;;;;;;;20.90;48.60;;;;;;5093652;28;19924;-47
2022/04/23 01:06:59;;;;;;;;;;;20.90;48.60;;;;;;5093962;28;20342;-47
2022/04/23 01:09:27;;;;;;;;;;;20.80;48.50;;;;;;5092041;28;19962;-47
2022/04/23 01:11:57;;;;;;;;;;;20.90;48.60;;;;;;5093816;28;19931;-47
2022/04/23 01:14:25;;;;;;;;;;;20.80;48.50;;;;;;5076129;28;19924;-49
2022/04/23 01:16:52;;;;;;;;;;;20.80;48.50;;;;;;5095831;28;19930;-47
2022/04/23 01:19:19;;;;;;;;;;;20.80;48.50;;;;;;5079918;28;19924;-46
2022/04/23 01:21:46;;;;;;;;;;;20.80;48.50;;;;;;5097433;28;19928;-47
2022/04/23 01:24:14;;;;;;;;;;;20.80;48.50;;;;;;5079017;28;19924;-48
2022/04/23 01:26:41;;;;;;;;;;;20.80;48.50;;;;;;5077610;28;19924;-47
2022/04/23 01:29:08;;;;;;;;;;;20.80;48.50;;;;;;5077053;28;19925;-47
2022/04/23 01:31:35;;;;;;;;;;;20.80;48.50;;;;;;5077402;28;19930;-49
2022/04/23 01:34:04;;;;;;;;;;;20.80;48.50;;;;;;5077417;28;19924;-49
2022/04/23 01:36:31;;;;;;;;;;;20.90;48.60;;;;;;5076947;28;19978;-47
2022/04/23 01:38:58;;;;;;;;;;;20.80;48.50;;;;;;5076876;28;19924;-47
2022/04/23 01:41:25;;;;;;;;;;;20.80;48.50;;;;;;5092754;28;19931;-47
2022/04/23 01:43:52;;;;;;;;;;;20.80;49.10;;;;;;5079156;28;20019;-47
2022/04/23 01:46:19;;;;;;;;;;;20.80;48.50;;;;;;5097078;28;20011;-46
2022/04/23 01:48:48;;;;;;;;;;;20.80;48.50;;;;;;5097159;28;20022;-48
2022/04/23 01:51:15;;;;;;;;;;;20.80;48.50;;;;;;5097174;28;19946;-50
2022/04/23 01:53:43;;;;;;;;;;;20.80;48.50;;;;;;5097242;28;19924;-46
2022/04/23 01:56:11;;;;;;;;;;;20.80;48.50;;;;;;5082407;28;19931;-47
2022/04/23 01:58:39;;;;;;;;;;;20.80;48.50;;;;;;5076522;28;19931;-47
2022/04/23 02:01:06;;;;;;;;;;;20.80;48.50;;;;;;5076491;28;19924;-48
2022/04/23 02:03:34;;;;;;;;;;;20.80;48.50;;;;;;5076996;28;19996;-47
2022/04/23 02:06:01;;;;;;;;;;;20.80;48.40;;;;;;5076425;28;19977;-47
2022/04/23 02:08:28;;;;;;;;;;;20.80;48.40;;;;;;5076593;28;19924;-47
2022/04/23 02:10:56;;;;;;;;;;;20.80;48.40;;;;;;5067341;28;19924;-46
2022/04/23 02:13:23;;;;;;;;;;;20.80;48.60;;;;;;5096565;28;20387;-47
2022/04/23 02:15:50;;;;;;;;;;;20.80;48.40;;;;;;5096746;28;19928;-47
2022/04/23 02:18:17;;;;;;;;;;;20.80;48.40;;;;;;5096689;28;20022;-46
2022/04/23 02:20:44;;;;;;;;;;;20.80;48.50;;;;;;5078408;28;19931;-46
2022/04/23 02:23:11;;;;;;;;;;;20.80;48.50;;;;;;5096758;28;19938;-46
2022/04/23 02:25:39;;;;;;;;;;;20.80;49.00;;;;;;5094597;28;19947;-48
2022/04/23 02:28:06;;;;;;;;;;;20.80;48.50;;;;;;5077141;28;20389;-47
2022/04/23 02:30:34;;;;;;;;;;;20.80;48.50;;;;;;5096127;28;19931;-47
2022/04/23 02:33:01;;;;;;;;;;;20.80;48.50;;;;;;5096472;28;19972;-48
2022/04/23 02:35:28;;;;;;;;;;;20.80;48.50;;;;;;5096119;28;19970;-47
2022/04/23 02:37:56;;;;;;;;;;;20.80;48.50;;;;;;5096082;28;19989;-47
2022/04/23 02:40:24;;;;;;;;;;;20.80;48.40;;;;;;5094378;28;20586;-46
2022/04/23 02:42:51;;;;;;;;;;;20.80;48.40;;;;;;5095960;28;20398;-48
2022/04/23 02:45:20;;;;;;;;;;;20.80;48.40;;;;;;5095904;28;19930;-47
2022/04/23 02:47:51;;;;;;;;;;;20.80;48.40;;;;;;5096192;28;19960;-46
2022/04/23 02:50:26;;;;;;;;;;;20.80;48.40;;;;;;5095780;28;19931;-47
2022/04/23 02:52:55;;;;;;;;;;;20.80;48.40;;;;;;5095792;28;20447;-47
2022/04/23 02:55:23;;;;;;;;;;;20.80;48.40;;;;;;5093876;28;19924;-47
2022/04/23 02:57:51;;;;;;;;;;;20.80;48.40;;;;;;5095665;28;19924;-47
2022/04/23 03:00:19;;;;;;;;;;;20.80;48.40;;;;;;5095948;28;20356;-47
2022/04/23 03:02:47;;;;;;;;;;;20.80;48.40;;;;;;5095574;28;20447;-46
2022/04/23 03:05:15;;;;;;;;;;;20.80;48.40;;;;;;5095525;28;19924;-48
2022/04/23 03:07:43;;;;;;;;;;;20.80;48.40;;;;;;5095812;28;19931;-48
2022/04/23 03:10:11;;;;;;;;;;;20.80;48.40;;;;;;5095628;28;20288;-49
2022/04/23 03:12:38;;;;;;;;;;;20.80;48.40;;;;;;5075033;28;19925;-50
2022/04/23 03:15:06;;;;;;;;;;;20.80;48.40;;;;;;5075121;28;19967;-48
2022/04/23 03:17:33;;;;;;;;;;;20.80;48.40;;;;;;5074964;28;19924;-51
2022/04/23 03:20:01;;;;;;;;;;;20.80;48.40;;;;;;5057760;28;19924;-46
2022/04/23 03:22:28;;;;;;;;;;;20.80;48.40;;;;;;5074852;28;19925;-46
2022/04/23 03:24:55;;;;;;;;;;;20.80;48.40;;;;;;5035377;28;20269;-47
2022/04/23 03:27:22;;;;;;;;;;;20.80;48.40;;;;;;5048079;28;20023;-46
2022/04/23 03:29:49;;;;;;;;;;;20.80;48.40;;;;;;5055087;28;20273;-46
2022/04/23 03:32:17;;;;;;;;;;;20.80;48.40;;;;;;5055124;28;20382;-47
2022/04/23 03:34:44;;;;;;;;;;;20.80;48.40;;;;;;5054801;28;20369;-47
2022/04/23 03:37:11;;;;;;;;;;;20.80;48.40;;;;;;5054709;28;19960;-47
2022/04/23 03:39:39;;;;;;;;;;;20.80;48.40;;;;;;5054461;28;19971;-48
2022/04/23 03:42:06;;;;;;;;;;;20.80;48.40;;;;;;5042349;28;20369;-46
2022/04/23 03:44:33;;;;;;;;;;;20.80;48.40;;;;;;5034965;28;19968;-47
2022/04/23 03:47:01;;;;;;;;;;;20.80;48.40;;;;;;5034944;28;19925;-47
2022/04/23 03:49:29;;;;;;;;;;;20.80;48.40;;;;;;5034423;28;19929;-46
2022/04/23 03:51:57;;;;;;;;;;;20.80;48.40;;;;;;5034707;28;19925;-49
2022/04/23 03:54:24;;;;;;;;;;;20.80;48.40;;;;;;5034505;28;20400;-46
2022/04/23 03:56:52;;;;;;;;;;;20.80;48.40;;;;;;5042016;28;19924;-48
2022/04/23 03:59:23;;;;;;;;;;;20.80;48.40;;;;;;5054262;28;19925;-46
2022/04/23 04:01:55;;;;;;;;;;;20.80;48.40;;;;;;5054873;28;19925;-50
2022/04/23 04:04:23;;;;;;;;;;;20.80;48.40;;;;;;5054544;28;20011;-51
2022/04/23 04:06:50;;;;;;;;;;;20.80;48.40;;;;;;5054135;28;19929;-49
2022/04/23 04:09:17;;;;;;;;;;;20.80;48.40;;;;;;5054353;28;19948;-48
2022/04/23 04:12:01;;;;;;;;;;;20.80;48.40;;;;;;5052438;28;19933;-48
2022/04/23 04:14:32;;;;;;;;;;;20.80;48.40;;;;;;5052925;28;20376;-47
2022/04/23 04:17:01;;;;;;;;;;;20.80;48.40;;;;;;5054304;28;19974;-47
2022/04/23 04:19:34;;;;;;;;;;;20.80;48.40;;;;;;5054206;28;19944;-47
2022/04/23 04:22:03;;;;;;;;;;;20.80;48.40;;;;;;5053865;28;19925;-48
2022/04/23 04:24:31;;;;;;;;;;;20.80;48.40;;;;;;5087172;28;19978;-46
2022/04/23 04:26:58;;;;;;;;;;;20.80;48.40;;;;;;5068142;28;20273;-47
2022/04/23 04:29:26;;;;;;;;;;;20.80;48.30;;;;;;5074067;28;19924;-49
2022/04/23 04:31:53;;;;;;;;;;;20.80;48.40;;;;;;5074067;28;20300;-47
2022/04/23 04:34:25;;;;;;;;;;;20.80;48.40;;;;;;5073755;28;19974;-47
2022/04/23 04:37:00;;;;;;;;;;;20.80;48.40;;;;;;5074075;28;19946;-46
2022/04/23 04:39:27;;;;;;;;;;;20.80;48.40;;;;;;5073738;28;19925;-47
2022/04/23 04:41:54;;;;;;;;;;;20.80;48.30;;;;;;5072955;28;19963;-52
2022/04/23 04:44:21;;;;;;;;;;;20.80;48.30;;;;;;5074517;28;19925;-47
2022/04/23 04:46:48;;;;;;;;;;;20.80;48.30;;;;;;5073623;28;19974;-53
2022/04/23 04:49:15;;;;;;;;;;;20.80;48.30;;;;;;5073475;28;20373;-47
2022/04/23 04:51:42;;;;;;;;;;;20.80;48.30;;;;;;5072880;28;19929;-50
2022/04/23 04:54:10;;;;;;;;;;;20.80;48.30;;;;;;5073831;28;20020;-47
2022/04/23 04:56:37;;;;;;;;;;;20.80;48.30;;;;;;5072852;28;20380;-52
2022/04/23 04:59:05;;;;;;;;;;;20.80;48.20;;;;;;5073525;28;20387;-48
2022/04/23 05:01:32;;;;;;;;;;;20.80;48.20;;;;;;5073796;28;19924;-47
2022/04/23 05:03:59;;;;;;;;;;;20.80;48.30;;;;;;5055746;28;20422;-51
2022/04/23 05:06:26;;;;;;;;;;;20.80;48.20;;;;;;5073788;28;19975;-47
2022/04/23 05:08:53;;;;;;;;;;;20.80;48.20;;;;;;5073445;28;19931;-50
2022/04/23 05:11:20;;;;;;;;;;;20.80;48.20;;;;;;5073328;28;19925;-47
2022/04/23 05:13:47;;;;;;;;;;;20.80;48.20;;;;;;5089587;28;20261;-47
2022/04/23 05:16:14;;;;;;;;;;;20.80;48.20;;;;;;5093579;28;19931;-53
2022/04/23 05:18:42;;;;;;;;;;;20.80;48.20;;;;;;5093724;28;20046;-46
2022/04/23 05:21:09;;;;;;;;;;;20.80;48.20;;;;;;5093528;28;19938;-48
2022/04/23 05:23:35;;;;;;;;;;;20.80;48.20;;;;;;5093486;28;19924;-50
2022/04/23 05:26:03;;;;;;;;;;;20.80;48.20;;;;;;5093485;28;19924;-50
2022/04/23 05:28:30;;;;;;;;;;;20.80;48.20;;;;;;5078106;28;20290;-52
2022/04/23 05:30:57;;;;;;;;;;;20.80;48.20;;;;;;5073164;28;19935;-49
2022/04/23 05:33:25;;;;;;;;;;;20.80;48.20;;;;;;5073505;28;20315;-47
2022/04/23 05:35:51;;;;;;;;;;;20.80;48.20;;;;;;5073187;28;20373;-51
2022/04/23 05:38:20;;;;;;;;;;;20.80;48.20;;;;;;5073685;28;19925;-51
2022/04/23 05:40:47;;;;;;;;;;;20.80;48.20;;;;;;5073444;28;20261;-48
2022/04/23 05:43:15;;;;;;;;;;;20.80;48.20;;;;;;5082386;28;19925;-49
2022/04/23 05:45:43;;;;;;;;;;;20.80;48.20;;;;;;5093292;28;19927;-52
2022/04/23 05:48:10;;;;;;;;;;;20.80;48.20;;;;;;5093194;28;20423;-49
2022/04/23 05:50:38;;;;;;;;;;;20.80;48.20;;;;;;5093320;28;19928;-52
2022/04/23 05:53:05;;;;;;;;;;;20.80;48.20;;;;;;5093169;28;19946;-49
2022/04/23 05:55:32;;;;;;;;;;;20.80;48.20;;;;;;5093447;28;19924;-46
2022/04/23 05:57:59;;;;;;;;;;;20.80;48.20;;;;;;5085228;28;19990;-46
2022/04/23 06:00:26;;;;;;;;;;;20.80;48.20;;;;;;5072923;28;19925;-47
2022/04/23 06:02:53;;;;;;;;;;;20.80;48.20;;;;;;5073721;28;19971;-48
2022/04/23 06:05:21;;;;;;;;;;;20.80;48.20;;;;;;5076699;28;19924;-47
2022/04/23 06:07:48;;;;;;;;;;;20.80;48.20;;;;;;5076998;28;19928;-48
2022/04/23 06:10:16;;;;;;;;;;;20.80;48.10;;;;;;5076619;28;19978;-49
2022/04/23 06:12:43;;;;;;;;;;;20.80;48.10;;;;;;5078730;28;19946;-46
2022/04/23 06:15:10;;;;;;;;;;;20.80;48.10;;;;;;5096536;28;20338;-46
2022/04/23 06:17:37;;;;;;;;;;;20.90;48.20;;;;;;5096793;28;19993;-47
2022/04/23 06:20:05;;;;;;;;;;;20.90;48.20;;;;;;5096519;28;19928;-46
2022/04/23 06:22:32;;;;;;;;;;;20.80;48.10;;;;;;5096325;28;19928;-47
2022/04/23 06:24:59;;;;;;;;;;;20.90;48.10;;;;;;5096341;28;20402;-50
2022/04/23 06:27:26;;;;;;;;;;;20.90;48.10;;;;;;5095501;28;19946;-48
2022/04/23 06:29:53;;;;;;;;;;;20.90;48.10;;;;;;5075897;28;19931;-46
2022/04/23 06:32:21;;;;;;;;;;;20.90;48.10;;;;;;5076305;28;19931;-47
2022/04/23 06:34:48;;;;;;;;;;;20.90;48.10;;;;;;5075917;28;20299;-46
2022/04/23 06:37:17;;;;;;;;;;;20.90;48.00;;;;;;5075856;28;19970;-46
2022/04/23 06:39:44;;;;;;;;;;;20.90;48.00;;;;;;5076001;28;19925;-46
2022/04/23 06:42:11;;;;;;;;;;;20.90;48.00;;;;;;5075727;28;19928;-47
2022/04/23 06:44:38;;;;;;;;;;;20.90;48.00;;;;;;5074891;28;19935;-47
2022/04/23 06:47:06;;;;;;;;;;;20.90;48.00;;;;;;5075846;28;19925;-46
2022/04/23 06:49:33;;;;;;;;;;;20.90;48.00;;;;;;5075905;28;19924;-46
2022/04/23 06:52:00;;;;;;;;;;;20.90;48.00;;;;;;5075946;28;19924;-49
2022/04/23 06:54:27;;;;;;;;;;;20.90;47.90;;;;;;5075775;28;19925;-50
2022/04/23 06:56:55;;;;;;;;;;;20.90;47.90;;;;;;5058142;28;20272;-48
2022/04/23 06:59:22;;;;;;;;;;;20.90;47.90;;;;;;5087883;28;19924;-46
2022/04/23 07:01:49;;;;;;;;;;;20.90;47.90;;;;;;5095948;28;19978;-47
2022/04/23 07:04:16;;;;;;;;;;;20.90;47.90;;;;;;5095608;28;19928;-47
2022/04/23 07:06:43;;;;;;;;;;;20.90;47.90;;;;;;5095831;28;20291;-47
2022/04/23 07:09:10;;;;;;;;;;;20.90;47.90;;;;;;5095771;28;19931;-46
2022/04/23 07:11:38;;;;;;;;;;;20.90;47.90;;;;;;5095227;28;19930;-46
2022/04/23 07:14:06;;;;;;;;;;;20.90;47.80;;;;;;5074673;28;19924;-46
2022/04/23 07:16:34;;;;;;;;;;;20.90;47.80;;;;;;5095666;28;20011;-47
2022/04/23 07:19:01;;;;;;;;;;;20.90;47.80;;;;;;5095557;28;19924;-46
2022/04/23 07:21:28;;;;;;;;;;;21.00;47.90;;;;;;5095097;28;20387;-47
2022/04/23 07:24:10;;;;;;;;;;;21.00;47.80;;;;;;5095059;28;19924;-47
2022/04/23 07:26:38;;;;;;;;;;;21.00;47.80;;;;;;5095482;28;19931;-47
2022/04/23 07:29:06;;;;;;;;;;;21.00;47.80;;;;;;5093154;28;19924;-46
2022/04/23 07:31:34;;;;;;;;;;;21.00;47.80;;;;;;5095541;28;19924;-47
2022/04/23 07:39:33;;;;;;;;;;;21.00;47.80;;;;;;5095236;28;19924;-49
2022/04/23 07:42:00;;;;;;;;;;;21.00;47.80;;;;;;5094850;28;20387;-47
2022/04/23 07:44:27;;;;;;;;;;;21.00;47.80;;;;;;5092731;28;20375;-48
2022/04/23 07:46:55;;;;;;;;;;;21.00;47.70;;;;;;5095008;28;19931;-49
2022/04/23 07:49:22;;;;;;;;;;;21.00;47.70;;;;;;5094938;28;19928;-48
2022/04/23 07:51:50;;;;;;;;;;;21.00;47.70;;;;;;5094446;28;19924;-46
2022/04/23 07:54:17;;;;;;;;;;;21.00;47.70;;;;;;5094908;28;20276;-51
2022/04/23 07:56:44;;;;;;;;;;;21.10;47.80;;;;;;5094580;28;19931;-48
2022/04/23 07:59:11;;;;;;;;;;;21.00;47.60;;;;;;5086412;28;19924;-49
2022/04/23 08:01:38;;;;;;;;;;;21.00;47.70;;;;;;5074186;28;19932;-47
2022/04/23 08:04:06;;;;;;;;;;;21.00;47.70;;;;;;5074179;28;19925;-49
2022/04/23 08:06:34;;;;;;;;;;;21.10;47.80;;;;;;5074150;28;19931;-48
2022/04/23 08:09:01;;;;;;;;;;;21.10;47.80;;;;;;5074677;28;19931;-51
2022/04/23 08:11:28;;;;;;;;;;;21.10;47.70;;;;;;5073985;28;20396;-46
2022/04/23 08:13:56;;;;;;;;;;;21.10;47.70;;;;;;5075915;28;19935;-47
2022/04/23 08:16:26;;;;;;;;;;;21.10;47.60;;;;;;5094588;28;19955;-47
2022/04/23 08:18:54;;;;;;;;;;;21.10;47.60;;;;;;5094773;28;19924;-46
2022/04/23 08:21:22;;;;;;;;;;;21.10;47.60;;;;;;5094330;28;20291;-46
2022/04/23 08:23:49;;;;;;;;;;;21.10;47.50;;;;;;5094095;28;19950;-50
2022/04/23 08:26:17;;;;;;;;;;;21.10;47.50;;;;;;5093283;28;19924;-47
2022/04/23 08:31:29;;;;;;;;;;;21.10;47.50;;;;;;5074886;28;19925;-49
2022/04/23 08:33:59;;;;;;;;;;;21.10;47.50;;;;;;5074377;28;19924;-47
2022/04/23 08:36:29;;;;;;;;;;;21.20;47.50;;;;;;5073742;28;20285;-47
2022/04/23 08:38:59;;;;;;;;;;;21.20;47.50;;;;;;5074039;28;19924;-47
2022/04/23 08:41:30;;;;;;;;;;;21.20;47.50;;;;;;5089817;28;19925;-52
2022/04/23 08:44:07;;;;;;;;;;;21.20;47.40;;;;;;5073388;28;20368;-53
2022/04/23 08:46:38;;;;;;;;;;;21.20;47.40;;;;;;5073699;28;19924;-47
2022/04/23 08:49:09;;;;;;;;;;;21.20;47.30;;;;;;5073920;28;19931;-47
2022/04/23 08:51:38;;;;;;;;;;;21.20;47.30;;;;;;5073738;28;19924;-51
2022/04/23 08:54:07;;;;;;;;;;;21.20;47.30;;;;;;5073605;28;19931;-50
2022/04/23 08:56:35;;;;;;;;;;;21.20;47.30;;;;;;5073608;28;19924;-46
2022/04/23 08:59:03;;;;;;;;;;;21.20;47.30;;;;;;5072982;28;19931;-46
2022/04/23 09:01:33;;;;;;;;;;;21.20;47.30;;;;;;5093289;28;19924;-47
2022/04/23 09:04:01;;;;;;;;;;;21.20;47.30;;;;;;5093734;28;19923;-51
2022/04/23 09:06:39;;;;;;;;;;;21.20;47.30;;;;;;5093985;28;19932;-48
2022/04/23 09:09:10;;;;;;;;;;;21.20;47.30;;;;;;5094229;28;20283;-48
2022/04/23 09:11:39;;;;;;;;;;;21.20;47.30;;;;;;5093603;28;20398;-47
2022/04/23 09:14:07;;;;;;;;;;;21.20;47.30;;;;;;5076050;28;19931;-52
2022/04/23 09:25:05;;;;;;;;;;;21.20;47.30;;;;;;5093565;28;19931;-48
2022/04/23 09:27:34;;;;;;;;;;;21.20;47.30;;;;;;5093791;28;19946;-47
2022/04/23 09:30:03;;;;;;;;;;;21.20;47.30;;;;;;5091159;28;19924;-48
2022/04/23 09:32:30;;;;;;;;;;;21.20;47.30;;;;;;5093495;28;19924;-50
2022/04/23 09:35:04;;;;;;;;;;;21.20;47.30;;;;;;5093586;28;19931;-50
2022/04/23 09:38:11;;;;;;;;;;;21.20;47.30;;;;;;5094966;28;20398;-47
2022/04/23 09:40:24;;;;;;;;;;;21.20;47.30;;;;;;5097233;28;19932;-51
2022/04/23 09:42:58;;;;;;;;;;;21.20;47.30;;;;;;5097501;28;19946;-48
2022/04/23 09:45:31;;;;;;;;;;;21.20;47.30;;;;;;5095979;28;20269;-52
2022/04/23 09:48:14;;;;;;;;;;;21.20;47.30;;;;;;5097039;28;19928;-47
2022/04/23 09:50:46;;;;;;;;;;;21.20;47.20;;;;;;5097130;28;19924;-51
2022/04/23 09:53:14;;;;;;;;;;;21.20;47.30;;;;;;5097577;28;19924;-51
2022/04/23 09:55:41;;;;;;;;;;;21.30;47.30;;;;;;5096922;28;19924;-53
2022/04/23 09:58:09;;;;;;;;;;;21.30;47.30;;;;;;5097220;28;19928;-48
2022/04/23 10:00:38;;;;;;;;;;;21.30;47.30;;;;;;5094931;28;20014;-48
2022/04/23 10:03:08;;;;;;;;;;;21.30;47.30;;;;;;5096780;28;19928;-50
2022/04/23 10:05:38;;;;;;;;;;;21.30;47.30;;;;;;5096781;28;19930;-49
2022/04/23 10:08:10;;;;;;;;;;;21.30;47.20;;;;;;5096411;28;19977;-47
2022/04/23 10:10:44;;;;;;;;;;;21.30;47.20;;;;;;5096983;28;19957;-48
2022/04/23 10:13:12;;;;;;;;;;;21.30;47.90;;;;;;5096804;28;19924;-48
2022/04/23 10:15:40;;;;;;;;;;;21.30;48.10;;;;;;5095327;28;19928;-54
2022/04/23 10:18:08;;;;;;;;;;;21.30;48.10;;;;;;5096642;28;19924;-53
2022/04/23 10:20:35;;;;;;;;;;;21.30;48.00;;;;;;5096254;28;19924;-49
2022/04/23 10:23:09;;;;;;;;;;;21.40;47.70;;;;;;5096291;28;19924;-54
2022/04/23 10:25:46;;;;;;;;;;;21.40;47.60;;;;;;5096347;28;19924;-47
2022/04/23 10:28:15;;;;;;;;;;;21.30;47.50;;;;;;5096292;28;19924;-47
2022/04/23 10:30:45;;;;;;;;;;;21.30;47.40;;;;;;5089488;28;19994;-47
2022/04/23 10:33:32;;;;;;;;;;;21.30;47.50;;;;;;5076242;28;19964;-47
2022/04/23 10:36:08;;;;;;;;;;;21.30;47.50;;;;;;5076155;28;19935;-49
2022/04/23 10:38:38;;;;;;;;;;;21.30;47.50;;;;;;5076126;28;20367;-47
2022/04/23 10:41:06;;;;;;;;;;;21.30;47.50;;;;;;5076108;28;19931;-47
2022/04/23 10:43:33;;;;;;;;;;;21.30;47.50;;;;;;5076080;28;19979;-47
2022/04/23 10:46:00;;;;;;;;;;;21.30;47.50;;;;;;5081611;28;19947;-47
2022/04/23 10:48:28;;;;;;;;;;;21.30;47.50;;;;;;5095286;28;19928;-47
2022/04/23 10:51:21;;;;;;;;;;;21.30;47.40;;;;;;5095671;28;19931;-47
2022/04/23 10:53:50;;;;;;;;;;;21.40;47.50;;;;;;5093215;28;20093;-47
2022/04/23 10:56:19;;;;;;;;;;;21.40;47.30;;;;;;5095703;28;19924;-48
2022/04/23 10:58:46;;;;;;;;;;;21.40;47.20;;;;;;5095672;28;19931;-47
2022/04/23 11:01:27;;;;;;;;;;;21.40;47.10;;;;;;5094542;28;20272;-47
2022/04/23 11:03:56;;;;;;;;;;;21.50;47.10;;;;;;5095864;28;19924;-47
2022/04/23 11:12:22;;;;;;;;;;;21.70;46.70;;;;;;5095397;28;19931;-47
2022/04/23 11:14:53;;;;;;;;;;;21.70;46.60;;;;;;5095339;28;19928;-47
2022/04/23 11:17:24;;;;;;;;;;;21.80;46.40;;;;;;5093268;28;19924;-47
2022/04/23 11:19:52;;;;;;;;;;;21.90;46.40;;;;;;5095150;28;19930;-47
2022/04/23 11:22:23;;;;;;;;;;;21.90;46.20;;;;;;5095292;28;19931;-49
2022/04/23 11:24:51;;;;;;;;;;;22.00;46.20;;;;;;5095267;28;19928;-47
2022/04/23 11:27:25;;;;;;;;;;;22.00;46.10;;;;;;5095428;28;19931;-47
2022/04/23 11:29:55;;;;;;;;;;;22.00;46.00;;;;;;5095005;28;19924;-49
2022/04/23 11:32:25;;;;;;;;;;;22.00;46.00;;;;;;5093401;28;19932;-50
2022/04/23 11:34:56;;;;;;;;;;;22.00;45.90;;;;;;5094933;28;20391;-48
2022/04/23 11:37:36;;;;;;;;;;;22.00;45.90;;;;;;5094903;28;20375;-47
2022/04/23 11:40:04;;;;;;;;;;;22.00;45.90;;;;;;5095197;28;19989;-47
2022/04/23 11:42:42;;;;;;;;;;;22.00;45.90;;;;;;5094814;28;20380;-47
2022/04/23 11:45:10;;;;;;;;;;;22.00;45.90;;;;;;5095069;28;19927;-53
2022/04/23 11:47:37;;;;;;;;;;;22.00;46.50;;;;;;5078916;28;19924;-47
2022/04/23 11:50:12;;;;;;;;;;;22.00;45.90;;;;;;5074321;28;19925;-51
2022/04/23 11:52:42;;;;;;;;;;;22.00;45.90;;;;;;5075135;28;19928;-49
2022/04/23 11:55:22;;;;;;;;;;;22.00;46.00;;;;;;5074340;28;20407;-52
2022/04/23 11:57:54;;;;;;;;;;;22.00;46.00;;;;;;5056659;28;19936;-47
2022/04/23 12:00:22;;;;;;;;;;;21.90;46.00;;;;;;5074171;28;19935;-47
2022/04/23 12:02:49;;;;;;;;;;;21.90;46.00;;;;;;5088236;28;19934;-47
2022/04/23 12:05:29;;;;;;;;;;;21.90;46.00;;;;;;5094686;28;19924;-47
2022/04/23 12:07:57;;;;;;;;;;;21.90;46.00;;;;;;5094362;28;19924;-48
2022/04/23 12:10:28;;;;;;;;;;;21.90;46.00;;;;;;5094339;28;19931;-47
2022/04/23 12:12:56;;;;;;;;;;;22.00;46.00;;;;;;5095066;28;19924;-47
2022/04/23 12:15:23;;;;;;;;;;;22.00;46.00;;;;;;5076406;28;19924;-47
2022/04/23 12:17:57;;;;;;;;;;;22.00;46.00;;;;;;5078383;28;19932;-47
2022/04/23 12:20:25;;;;;;;;;;;22.00;46.00;;;;;;5074116;28;20374;-48
2022/04/23 12:23:02;;;;;;;;;;;22.00;45.90;;;;;;5073728;28;20460;-47
2022/04/23 12:25:30;;;;;;;;;;;22.00;45.90;;;;;;5073847;28;19929;-47
2022/04/23 12:27:57;;;;;;;;;;;22.00;45.90;;;;;;5074142;28;20261;-48
2022/04/23 12:41:55;;;;;;;;;;;22.00;45.80;;;;;;5095085;28;19931;-49
2022/04/23 12:44:23;;;;;;;;;;;22.00;45.90;;;;;;5094097;28;20299;-48
2022/04/23 12:46:53;;;;;;;;;;;22.00;45.90;;;;;;5091655;28;20489;-47
2022/04/23 12:49:22;;;;;;;;;;;21.90;45.80;;;;;;5093653;28;19930;-47
2022/04/23 12:51:50;;;;;;;;;;;22.00;45.90;;;;;;5093569;28;19935;-47
2022/04/23 12:54:17;;;;;;;;;;;22.00;45.90;;;;;;5094059;28;20015;-48
2022/04/23 12:56:44;;;;;;;;;;;21.90;45.80;;;;;;5093729;28;19928;-49
2022/04/23 12:59:11;;;;;;;;;;;22.00;45.90;;;;;;5093908;28;19924;-51
2022/04/23 13:01:38;;;;;;;;;;;21.90;45.80;;;;;;5092774;28;20291;-51
2022/04/23 13:04:09;;;;;;;;;;;21.90;45.90;;;;;;5093930;28;20320;-48
2022/04/23 13:09:42;;;;;;;;;;;21.80;45.90;;;;;;5031443;28;19925;-47
2022/04/23 13:12:09;;;;;;;;;;;21.80;46.00;;;;;;5032410;28;20023;-52
2022/04/23 13:14:36;;;;;;;;;;;21.80;46.00;;;;;;5035542;28;19936;-47
2022/04/23 13:17:03;;;;;;;;;;;21.80;46.00;;;;;;5033891;28;20384;-48
2022/04/23 13:19:31;;;;;;;;;;;21.80;46.00;;;;;;5035449;28;20415;-47
2022/04/23 13:22:00;;;;;;;;;;;21.90;46.00;;;;;;5035141;28;19932;-48
2022/04/23 13:24:27;;;;;;;;;;;21.90;45.90;;;;;;5035272;28;20381;-48
2022/04/23 13:26:54;;;;;;;;;;;21.90;45.90;;;;;;5035243;28;19971;-47
2022/04/23 13:29:21;;;;;;;;;;;21.90;45.80;;;;;;5035168;28;19925;-48
2022/04/23 13:31:48;;;;;;;;;;;22.00;46.50;;;;;;5018704;28;20424;-47
2022/04/23 13:34:16;;;;;;;;;;;21.90;46.40;;;;;;5033808;28;19947;-47
2022/04/23 13:36:43;;;;;;;;;;;22.00;45.80;;;;;;5035284;28;19931;-50
2022/04/23 13:39:10;;;;;;;;;;;22.00;45.80;;;;;;5035212;28;20397;-49
2022/04/23 13:41:37;;;;;;;;;;;22.00;45.80;;;;;;5095322;28;19930;-48
2022/04/23 13:44:04;;;;;;;;;;;22.00;45.80;;;;;;5097115;28;19931;-52
2022/04/23 13:46:33;;;;;;;;;;;22.00;45.80;;;;;;5097088;28;19930;-50
2022/04/23 13:49:01;;;;;;;;;;;22.00;45.80;;;;;;5095191;28;19924;-51
2022/04/23 13:51:28;;;;;;;;;;;22.00;45.80;;;;;;5096847;28;19931;-49
2022/04/23 13:53:55;;;;;;;;;;;22.00;45.80;;;;;;5096961;28;19963;-50
2022/04/23 13:56:22;;;;;;;;;;;21.90;45.70;;;;;;5096848;28;19924;-49
2022/04/23 13:58:49;;;;;;;;;;;22.00;45.80;;;;;;5096862;28;20384;-47
2022/04/23 14:01:16;;;;;;;;;;;22.00;45.80;;;;;;5096791;28;19924;-47
2022/04/23 14:12:00;;;;;;;;;;;22.00;45.80;;;;;;5076238;28;20406;-48
2022/04/23 14:14:28;;;;;;;;;;;22.00;45.80;;;;;;5076270;28;19924;-50
2022/04/23 14:16:56;;;;;;;;;;;21.90;45.70;;;;;;5076585;28;19932;-51
2022/04/23 14:19:29;;;;;;;;;;;21.90;45.80;;;;;;5075887;28;19929;-50
2022/04/23 14:21:56;;;;;;;;;;;21.90;45.90;;;;;;5076071;28;19928;-49
2022/04/23 14:24:23;;;;;;;;;;;21.80;45.80;;;;;;5074720;28;19925;-51
2022/04/23 14:26:50;;;;;;;;;;;21.80;45.90;;;;;;5076441;28;20288;-47
2022/04/23 14:29:17;;;;;;;;;;;21.90;45.90;;;;;;5076380;28;19924;-51
2022/04/23 14:31:44;;;;;;;;;;;21.80;45.90;;;;;;5075941;28;19924;-47
2022/04/23 14:34:12;;;;;;;;;;;21.90;45.90;;;;;;5087735;28;19931;-52
2022/04/23 14:36:40;;;;;;;;;;;21.80;45.90;;;;;;5096730;28;19931;-49
2022/04/23 14:39:07;;;;;;;;;;;21.80;45.90;;;;;;5096432;28;19924;-51
2022/04/23 14:41:34;;;;;;;;;;;21.80;46.00;;;;;;5096376;28;19924;-48
2022/04/23 14:44:01;;;;;;;;;;;21.80;46.00;;;;;;5095999;28;19928;-52
2022/04/23 14:46:28;;;;;;;;;;;21.80;46.00;;;;;;5096289;28;19924;-49
2022/04/23 14:48:56;;;;;;;;;;;21.80;46.00;;;;;;5094269;28;19924;-53
2022/04/23 14:54:10;;;;;;;;;;;21.80;46.00;;;;;;5096838;28;19924;-54
2022/04/23 14:56:37;;;;;;;;;;;21.80;46.00;;;;;;5095725;28;19930;-47
2022/04/23 14:59:07;;;;;;;;;;;21.80;46.10;;;;;;5095717;28;19924;-47
2022/04/23 15:01:35;;;;;;;;;;;21.80;46.10;;;;;;5095607;28;19932;-47
2022/04/23 15:04:09;;;;;;;;;;;21.70;46.10;;;;;;5084837;28;19978;-47
2022/04/23 15:06:40;;;;;;;;;;;21.70;46.10;;;;;;5075327;28;20439;-47
2022/04/23 15:09:07;;;;;;;;;;;21.70;46.20;;;;;;5075603;28;19932;-47
2022/04/23 15:11:35;;;;;;;;;;;21.70;46.20;;;;;;5075220;28;20019;-47